Time;durP1;ratioP1;P1;durP2;ratioP2;P2;SDS_P1;SDS_P2;PMS_P1;PMS_P2;Temp;Humidity;BMP_temperature;BMP_pressure;BME280_temperature;BME280_humidity;BME280_pressure;Samples;Min_cycle;Max_cycle;Signal;HPM_P1;HPM_P2
2023/05/14 00:01:33;;;;;;;19.55;11.93;;;10.40;99.90;;;;;;5131215;27;20061;-49
2023/05/14 00:03:59;;;;;;;19.45;13.10;;;10.40;99.90;;;;;;5113046;27;20078;-48
2023/05/14 00:06:25;;;;;;;21.67;11.63;;;10.40;99.90;;;;;;5115392;27;20804;-52
2023/05/14 00:08:51;;;;;;;18.33;11.90;;;10.50;99.90;;;;;;5132416;27;20401;-47
2023/05/14 00:11:16;;;;;;;21.85;12.38;;;10.30;99.90;;;;;;5112829;27;20039;-51
2023/05/14 00:13:42;;;;;;;23.30;12.70;;;10.30;99.90;;;;;;5132528;27;20846;-49
2023/05/14 00:16:08;;;;;;;21.73;12.27;;;10.30;99.90;;;;;;5130773;27;20545;-51
2023/05/14 00:18:33;;;;;;;23.13;13.40;;;10.40;99.90;;;;;;5130833;27;20042;-48
2023/05/14 00:20:59;;;;;;;21.33;11.90;;;10.30;99.90;;;;;;5129947;27;20039;-50
2023/05/14 00:23:25;;;;;;;23.20;12.48;;;10.20;99.90;;;;;;5112687;27;20039;-53
2023/05/14 00:25:51;;;;;;;20.88;12.90;;;10.40;99.90;;;;;;5131417;27;20530;-49
2023/05/14 00:28:16;;;;;;;24.35;12.60;;;10.40;99.90;;;;;;5131525;27;20066;-51
2023/05/14 00:30:42;;;;;;;18.27;11.45;;;10.10;99.90;;;;;;5132108;27;20042;-49
2023/05/14 00:33:08;;;;;;;21.33;13.73;;;10.20;99.90;;;;;;5131303;27;21634;-50
2023/05/14 00:35:34;;;;;;;19.88;12.18;;;10.10;99.90;;;;;;5132110;27;20456;-50
2023/05/14 00:38:01;;;;;;;17.88;12.52;;;10.20;99.90;;;;;;5133952;27;20625;-50
2023/05/14 00:40:27;;;;;;;22.27;12.88;;;10.10;99.90;;;;;;5131602;27;20042;-51
2023/05/14 00:42:54;;;;;;;16.42;12.35;;;10.00;99.90;;;;;;5131460;27;20149;-52
2023/05/14 00:45:20;;;;;;;20.70;12.32;;;10.10;99.90;;;;;;5131882;27;20043;-52
2023/05/14 00:47:47;;;;;;;23.17;13.70;;;10.10;99.90;;;;;;5132460;27;20079;-53
2023/05/14 00:50:15;;;;;;;22.92;11.80;;;10.10;99.90;;;;;;5130413;27;20038;-51
2023/05/14 00:52:41;;;;;;;23.27;12.13;;;10.00;99.90;;;;;;5134382;27;20046;-50
2023/05/14 00:55:08;;;;;;;21.17;12.05;;;10.00;99.90;;;;;;5136556;27;20130;-52
2023/05/14 00:57:35;;;;;;;20.25;11.55;;;10.10;99.90;;;;;;5116492;27;20411;-51
2023/05/14 01:00:02;;;;;;;19.65;11.85;;;10.80;99.90;;;;;;5135144;27;20054;-51
2023/05/14 01:02:28;;;;;;;20.67;13.40;;;10.00;99.90;;;;;;5117341;27;20043;-52
2023/05/14 01:04:54;;;;;;;20.45;14.45;;;10.00;99.90;;;;;;5112953;27;20058;-51
2023/05/14 01:07:32;;;;;;;26.85;16.02;;;10.00;99.90;;;;;;5137188;27;20641;-52
2023/05/14 01:10:09;;;;;;;30.10;17.40;;;9.90;99.90;;;;;;5136019;27;20118;-51
2023/05/14 01:12:41;;;;;;;25.40;17.42;;;9.90;99.90;;;;;;5135793;27;20497;-52
2023/05/14 01:15:15;;;;;;;23.73;17.20;;;9.90;99.90;;;;;;5134635;27;20050;-53
2023/05/14 01:17:47;;;;;;;31.20;18.17;;;9.90;99.90;;;;;;5118452;27;20511;-53
2023/05/14 01:20:13;;;;;;;;;;;10.10;99.90;;;;;;5136347;27;20034;-53
2023/05/14 01:22:39;;;;;;;34.55;19.60;;;10.10;99.90;;;;;;5116868;27;19975;-52
2023/05/14 01:25:05;;;;;;;29.75;17.77;;;10.10;99.90;;;;;;5136210;27;20050;-51
2023/05/14 01:27:41;;;;;;;22.27;17.10;;;10.10;99.90;;;;;;5134527;27;20050;-49
2023/05/14 01:30:12;;;;;;;27.25;17.50;;;9.90;99.90;;;;;;5098080;27;20078;-52
2023/05/14 01:32:39;;;;;;;35.45;16.60;;;9.90;99.90;;;;;;5133234;27;20042;-52
2023/05/14 01:35:06;;;;;;;31.05;17.05;;;10.10;99.90;;;;;;5134160;27;20054;-52
2023/05/14 01:37:33;;;;;;;33.53;16.15;;;10.00;99.90;;;;;;5135216;27;20055;-51
2023/05/14 01:40:00;;;;;;;29.38;14.32;;;9.80;99.90;;;;;;5134886;27;20146;-52
2023/05/14 01:42:27;;;;;;;26.75;14.55;;;10.00;99.90;;;;;;5133895;27;20071;-51
2023/05/14 01:44:53;;;;;;;23.00;11.98;;;10.00;99.90;;;;;;5133367;27;20049;-47
2023/05/14 01:47:18;;;;;;;18.52;10.70;;;9.90;99.90;;;;;;5134667;27;20051;-52
2023/05/14 01:49:44;;;;;;;20.50;10.68;;;9.80;99.90;;;;;;5134385;27;20045;-50
2023/05/14 01:52:10;;;;;;;23.77;10.57;;;10.00;99.90;;;;;;5134849;27;20039;-51
2023/05/14 01:54:36;;;;;;;21.27;10.80;;;9.80;99.90;;;;;;5133786;27;20038;-50
2023/05/14 01:57:02;;;;;;;22.75;10.80;;;9.80;99.90;;;;;;5133767;27;20049;-50
2023/05/14 01:59:28;;;;;;;23.75;12.90;;;9.80;99.90;;;;;;5135441;27;20087;-49
2023/05/14 02:01:54;;;;;;;21.83;12.30;;;9.80;99.90;;;;;;5134134;27;20070;-48
2023/05/14 02:04:20;;;;;;;26.00;12.98;;;9.80;99.90;;;;;;5134243;27;20066;-50
2023/05/14 02:06:46;;;;;;;21.30;12.15;;;9.80;99.90;;;;;;5134898;27;20130;-47
2023/05/14 02:09:12;;;;;;;35.22;13.13;;;10.60;99.90;;;;;;5134562;27;20151;-52
2023/05/14 02:11:37;;;;;;;22.92;12.18;;;9.90;99.90;;;;;;5134169;27;20602;-50
2023/05/14 02:14:03;;;;;;;19.77;13.05;;;9.80;99.90;;;;;;5134785;27;20078;-46
2023/05/14 02:16:29;;;;;;;21.38;11.93;;;9.90;99.90;;;;;;5135059;27;20034;-50
2023/05/14 02:18:55;;;;;;;28.17;12.38;;;10.00;99.90;;;;;;5132999;27;20046;-53
2023/05/14 02:21:20;;;;;;;23.23;12.63;;;9.90;99.90;;;;;;5133929;27;20042;-46
2023/05/14 02:23:48;;;;;;;26.33;12.63;;;9.90;99.90;;;;;;5116586;27;20496;-49
2023/05/14 02:26:14;;;;;;;21.63;11.98;;;9.80;99.90;;;;;;5134995;27;20130;-47
2023/05/14 02:28:39;;;;;;;24.45;12.65;;;9.80;99.90;;;;;;5134518;27;20035;-47
2023/05/14 02:31:05;;;;;;;24.33;12.65;;;9.80;99.90;;;;;;5132479;27;20049;-49
2023/05/14 02:33:31;;;;;;;21.20;11.82;;;9.80;99.90;;;;;;5092450;27;20314;-48
2023/05/14 02:35:57;;;;;;;26.00;13.25;;;10.00;99.90;;;;;;5133062;27;20517;-48
2023/05/14 02:38:22;;;;;;;22.50;12.60;;;9.90;99.90;;;;;;5134724;27;20042;-46
2023/05/14 02:40:48;;;;;;;29.00;12.75;;;9.80;99.90;;;;;;5132608;27;20034;-51
2023/05/14 02:43:14;;;;;;;27.85;13.68;;;9.70;99.90;;;;;;5133977;27;20219;-47
2023/05/14 02:45:39;;;;;;;23.85;13.05;;;9.80;99.90;;;;;;5133136;27;20118;-49
2023/05/14 02:48:05;;;;;;;27.42;13.02;;;10.00;99.90;;;;;;5132728;27;20039;-46
2023/05/14 02:50:31;;;;;;;30.85;13.05;;;9.90;99.90;;;;;;5131924;27;20078;-50
2023/05/14 02:52:57;;;;;;;23.95;13.07;;;9.90;99.90;;;;;;5134105;27;20079;-50
2023/05/14 02:55:25;;;;;;;29.90;13.05;;;9.90;99.90;;;;;;5132400;27;20118;-51
2023/05/14 02:57:52;;;;;;;30.58;15.07;;;10.10;99.90;;;;;;5115057;27;20034;-48
2023/05/14 03:00:18;;;;;;;26.92;13.63;;;9.60;99.90;;;;;;5131829;27;20055;-47
2023/05/14 03:02:44;;;;;;;25.60;13.55;;;9.90;99.90;;;;;;5134575;27;20188;-49
2023/05/14 03:05:10;;;;;;;27.77;14.18;;;9.90;99.90;;;;;;5131936;27;20578;-51
2023/05/14 03:07:35;;;;;;;31.42;14.02;;;9.80;99.90;;;;;;5116102;27;20502;-49
2023/05/14 03:10:01;;;;;;;23.85;13.15;;;9.90;99.90;;;;;;5132227;27;20043;-50
2023/05/14 03:12:27;;;;;;;28.30;14.18;;;10.00;99.90;;;;;;5116318;27;20092;-48
2023/05/14 03:14:53;;;;;;;26.60;15.00;;;9.80;99.90;;;;;;5132634;27;20053;-47
2023/05/14 03:17:18;;;;;;;29.92;14.00;;;9.80;99.90;;;;;;5132985;27;20031;-49
2023/05/14 03:19:44;;;;;;;28.67;15.52;;;9.60;99.90;;;;;;5131334;27;20034;-50
2023/05/14 03:22:10;;;;;;;34.70;14.07;;;9.60;99.90;;;;;;5114257;27;20038;-51
2023/05/14 03:24:39;;;;;;;22.88;13.30;;;9.80;99.90;;;;;;5130610;27;20513;-49
2023/05/14 03:27:05;;;;;;;24.90;13.60;;;9.80;99.90;;;;;;5133302;27;20042;-47
2023/05/14 03:29:31;;;;;;;22.73;12.75;;;9.70;99.90;;;;;;5131082;27;20255;-50
2023/05/14 03:31:56;;;;;;;28.60;13.13;;;9.60;99.90;;;;;;5134009;27;20928;-47
2023/05/14 03:34:22;;;;;;;27.92;14.40;;;10.60;99.90;;;;;;5131947;27;20129;-50
2023/05/14 03:36:48;;;;;;;28.83;14.38;;;9.70;99.90;;;;;;5133296;27;20038;-51
2023/05/14 03:39:18;;;;;;;31.30;14.93;;;9.50;99.90;;;;;;5135400;27;20058;-47
2023/05/14 03:41:45;;;;;;;24.75;12.75;;;9.60;99.90;;;;;;5115341;27;20043;-48
2023/05/14 03:44:11;;;;;;;28.25;13.38;;;9.60;99.90;;;;;;5132741;27;20055;-50
2023/05/14 03:46:37;;;;;;;26.98;13.27;;;10.90;99.90;;;;;;5132193;27;20703;-49
2023/05/14 03:49:02;;;;;;;27.73;13.65;;;9.40;99.90;;;;;;5107328;27;20062;-48
2023/05/14 03:51:28;;;;;;;27.98;15.23;;;9.60;99.90;;;;;;5133102;27;20039;-47
2023/05/14 03:53:54;;;;;;;32.58;14.55;;;9.50;99.90;;;;;;5132694;27;20042;-48
2023/05/14 03:56:21;;;;;;;28.67;15.43;;;9.50;99.90;;;;;;5130391;27;20054;-46
2023/05/14 03:58:47;;;;;;;28.55;15.35;;;9.50;99.90;;;;;;5131394;27;20042;-47
2023/05/14 04:01:12;;;;;;;29.67;15.45;;;9.40;99.90;;;;;;5131897;27;20058;-49
2023/05/14 04:03:38;;;;;;;25.98;15.32;;;9.70;99.90;;;;;;5131363;27;20073;-49
2023/05/14 04:06:04;;;;;;;20.40;12.18;;;9.70;99.90;;;;;;5131435;27;20042;-47
2023/05/14 04:08:30;;;;;;;28.50;14.13;;;9.60;99.90;;;;;;5132398;27;20180;-49
2023/05/14 04:10:55;;;;;;;29.52;15.00;;;9.70;99.90;;;;;;5132406;27;20062;-47
2023/05/14 04:13:21;;;;;;;25.33;13.88;;;9.60;99.90;;;;;;5096687;27;20406;-46
2023/05/14 04:15:47;;;;;;;32.05;15.75;;;9.60;99.90;;;;;;5130770;27;20047;-48
2023/05/14 04:18:13;;;;;;;27.67;13.77;;;9.40;99.90;;;;;;5113736;27;20091;-48
2023/05/14 04:20:39;;;;;;;23.08;12.80;;;9.50;99.90;;;;;;5130401;27;20426;-51
2023/05/14 04:23:05;;;;;;;23.98;12.73;;;9.60;99.90;;;;;;5131765;27;20281;-47
2023/05/14 04:25:31;;;;;;;22.80;13.23;;;9.60;99.90;;;;;;5129759;27;20039;-48
2023/05/14 04:27:57;;;;;;;20.50;11.32;;;9.70;99.90;;;;;;5079940;27;20038;-48
2023/05/14 04:30:23;;;;;;;27.38;12.02;;;9.80;99.90;;;;;;5128870;27;20047;-49
2023/05/14 04:32:48;;;;;;;22.92;12.27;;;9.80;99.90;;;;;;5130874;27;21070;-48
2023/05/14 04:35:14;;;;;;;28.23;12.38;;;9.80;99.90;;;;;;5131085;27;20046;-51
2023/05/14 04:37:40;;;;;;;24.77;12.45;;;10.00;99.90;;;;;;5131243;27;20567;-49
2023/05/14 04:40:07;;;;;;;32.42;12.45;;;10.00;99.90;;;;;;5130964;27;20182;-49
2023/05/14 04:42:33;;;;;;;31.67;12.45;;;9.90;99.90;;;;;;5132055;27;20050;-48
2023/05/14 04:44:59;;;;;;;33.28;13.05;;;10.00;99.90;;;;;;5112551;27;20027;-49
2023/05/14 04:47:25;;;;;;;31.23;14.25;;;10.20;99.90;;;;;;5130902;27;20068;-47
2023/05/14 04:49:51;;;;;;;36.22;13.50;;;10.10;99.90;;;;;;5130626;27;20506;-49
2023/05/14 04:52:16;;;;;;;32.65;13.90;;;10.30;99.90;;;;;;5112824;27;20125;-48
2023/05/14 04:54:42;;;;;;;33.92;13.77;;;10.40;99.90;;;;;;5131810;27;20031;-51
2023/05/14 04:57:08;;;;;;;30.30;13.95;;;10.60;99.90;;;;;;5113580;27;20047;-48
2023/05/14 04:59:34;;;;;;;39.50;13.75;;;10.70;99.90;;;;;;5131933;27;20082;-50
2023/05/14 05:01:59;;;;;;;33.45;13.43;;;10.60;99.90;;;;;;5131121;27;20503;-48
2023/05/14 05:04:26;;;;;;;35.45;14.18;;;10.70;99.90;;;;;;5129931;27;20039;-48
2023/05/14 05:06:52;;;;;;;28.88;11.80;;;10.80;99.90;;;;;;5130890;27;20279;-48
2023/05/14 05:09:18;;;;;;;31.48;12.90;;;10.90;99.90;;;;;;5132325;27;20807;-48
2023/05/14 05:11:43;;;;;;;28.83;12.35;;;11.20;99.90;;;;;;5131616;27;20042;-49
2023/05/14 05:14:09;;;;;;;24.95;12.02;;;11.20;99.90;;;;;;5131274;27;20063;-51
2023/05/14 05:16:35;;;;;;;22.83;11.50;;;11.20;99.90;;;;;;5131106;27;20031;-50
2023/05/14 05:19:01;;;;;;;24.63;10.90;;;11.40;99.90;;;;;;5129885;27;20043;-51
2023/05/14 05:21:27;;;;;;;26.25;10.98;;;11.30;99.90;;;;;;5129842;27;20440;-50
2023/05/14 05:23:52;;;;;;;26.48;11.77;;;11.50;99.90;;;;;;5130159;27;20051;-51
2023/05/14 05:26:18;;;;;;;22.63;10.50;;;11.50;99.90;;;;;;5131192;27;20054;-51
2023/05/14 05:28:44;;;;;;;25.50;11.43;;;11.50;99.90;;;;;;5129008;27;20538;-48
2023/05/14 05:31:09;;;;;;;33.45;11.05;;;11.40;99.90;;;;;;5111673;27;20045;-56
2023/05/14 05:33:35;;;;;;;32.80;11.77;;;11.50;99.90;;;;;;5131519;27;20129;-56
2023/05/14 05:36:01;;;;;;;24.63;9.80;;;11.70;99.90;;;;;;5129471;27;20046;-56
2023/05/14 05:38:27;;;;;;;28.63;10.57;;;11.80;99.90;;;;;;5116385;27;20058;-56
2023/05/14 05:40:53;;;;;;;19.27;10.07;;;11.70;99.90;;;;;;5134962;27;20039;-55
2023/05/14 05:43:18;;;;;;;25.95;9.77;;;11.70;99.90;;;;;;5116539;27;20057;-56
2023/05/14 05:45:45;;;;;;;26.85;10.43;;;11.70;99.90;;;;;;5134839;27;20068;-56
2023/05/14 05:48:10;;;;;;;22.00;9.95;;;11.80;99.90;;;;;;5135584;27;20042;-57
2023/05/14 05:50:36;;;;;;;22.63;9.95;;;11.70;99.90;;;;;;5134199;27;20042;-56
2023/05/14 05:53:02;;;;;;;23.25;10.15;;;11.90;99.90;;;;;;5134377;27;20769;-57
2023/05/14 05:55:28;;;;;;;20.48;8.93;;;11.80;99.90;;;;;;5133624;27;20362;-57
2023/05/14 05:57:55;;;;;;;25.13;10.52;;;11.90;99.90;;;;;;5133919;27;20400;-57
2023/05/14 06:00:20;;;;;;;26.45;10.27;;;11.90;99.90;;;;;;5135565;27;20485;-56
2023/05/14 06:02:47;;;;;;;23.83;9.18;;;11.90;99.90;;;;;;5135443;27;20051;-57
2023/05/14 06:05:13;;;;;;;19.85;10.52;;;12.10;99.90;;;;;;5134458;27;20127;-57
2023/05/14 06:07:39;;;;;;;18.20;8.65;;;12.20;99.90;;;;;;5135118;27;20042;-57
2023/05/14 06:10:05;;;;;;;27.52;9.50;;;12.30;99.90;;;;;;5134828;27;20177;-57
2023/05/14 06:12:31;;;;;;;23.48;9.52;;;12.40;99.90;;;;;;5116690;27;20095;-56
2023/05/14 06:14:57;;;;;;;19.30;9.25;;;12.40;99.90;;;;;;5115680;27;20420;-57
2023/05/14 06:17:24;;;;;;;18.45;8.18;;;12.70;99.90;;;;;;5134124;27;20415;-59
2023/05/14 06:19:50;;;;;;;29.75;9.50;;;12.60;99.90;;;;;;5132985;27;20034;-57
2023/05/14 06:22:16;;;;;;;19.27;7.60;;;12.90;99.90;;;;;;5116632;27;20403;-58
2023/05/14 06:24:42;;;;;;;21.38;8.73;;;13.10;99.90;;;;;;5134820;27;20053;-57
2023/05/14 06:27:10;;;;;;;18.15;7.97;;;12.80;99.90;;;;;;5132887;27;20047;-56
2023/05/14 06:29:36;;;;;;;25.27;8.40;;;13.00;99.90;;;;;;5114314;27;20506;-57
2023/05/14 06:32:02;;;;;;;17.08;7.93;;;13.20;99.90;;;;;;5133730;27;20046;-57
2023/05/14 06:34:28;;;;;;;16.08;7.55;;;12.90;99.90;;;;;;5132838;27;20034;-56
2023/05/14 06:36:54;;;;;;;20.42;9.00;;;13.30;99.90;;;;;;5133616;27;20042;-57
2023/05/14 06:39:20;;;;;;;16.58;7.40;;;13.20;99.90;;;;;;5134037;27;20483;-57
2023/05/14 06:41:45;;;;;;;19.58;7.70;;;13.30;99.90;;;;;;5133784;27;24786;-57
2023/05/14 06:44:11;;;;;;;20.80;6.93;;;13.60;99.90;;;;;;5134203;27;20026;-57
2023/05/14 06:46:37;;;;;;;16.98;7.43;;;13.50;99.90;;;;;;5133043;27;20041;-57
2023/05/14 06:49:03;;;;;;;16.13;6.93;;;13.30;99.90;;;;;;5131358;27;20085;-56
2023/05/14 06:51:28;;;;;;;15.63;6.38;;;13.50;99.90;;;;;;5132649;27;20066;-56
2023/05/14 06:53:54;;;;;;;16.85;6.82;;;13.30;99.90;;;;;;5131868;27;20050;-56
2023/05/14 06:56:21;;;;;;;14.57;6.68;;;13.30;99.90;;;;;;5132551;27;20043;-56
2023/05/14 06:58:47;;;;;;;15.05;6.00;;;13.40;99.90;;;;;;5133762;27;20526;-56
2023/05/14 07:01:13;;;;;;;17.05;6.40;;;13.50;99.90;;;;;;5133238;27;20058;-57
2023/05/14 07:03:39;;;;;;;13.73;6.15;;;13.60;99.90;;;;;;5132132;27;20329;-56
2023/05/14 07:06:05;;;;;;;17.67;6.35;;;13.50;99.90;;;;;;5133197;27;20771;-56
2023/05/14 07:08:31;;;;;;;19.45;6.68;;;13.70;99.90;;;;;;5134328;27;20035;-57
2023/05/14 07:10:57;;;;;;;19.42;7.05;;;14.10;99.90;;;;;;5133997;27;20049;-57
2023/05/14 07:13:23;;;;;;;20.35;6.60;;;14.10;99.90;;;;;;5131185;27;20038;-56
2023/05/14 07:15:50;;;;;;;18.13;7.03;;;14.60;99.90;;;;;;5131478;27;20041;-57
2023/05/14 07:18:15;;;;;;;16.00;5.38;;;14.80;99.90;;;;;;5131160;27;20510;-57
2023/05/14 07:20:41;;;;;;;14.95;5.35;;;15.30;99.90;;;;;;5133218;27;20126;-57
2023/05/14 07:23:07;;;;;;;14.82;5.35;;;15.70;99.90;;;;;;5113856;27;20041;-57
2023/05/14 07:25:33;;;;;;;13.80;4.78;;;16.20;99.90;;;;;;5131604;27;20075;-57
2023/05/14 07:27:58;;;;;;;14.65;4.75;;;16.70;99.90;;;;;;5132991;27;20038;-57
2023/05/14 07:30:24;;;;;;;17.50;5.18;;;17.30;99.90;;;;;;5133941;27;20042;-57
2023/05/14 07:32:50;;;;;;;15.82;4.70;;;17.80;99.90;;;;;;5132817;27;20034;-57
2023/05/14 07:35:16;;;;;;;39.38;5.55;;;18.20;99.90;;;;;;5131557;27;20069;-58
2023/05/14 07:37:42;;;;;;;17.38;4.13;;;18.40;99.90;;;;;;5132661;27;20399;-57
2023/05/14 07:40:08;;;;;;;11.55;4.35;;;18.50;99.90;;;;;;5116199;27;20047;-58
2023/05/14 07:42:34;;;;;;;12.57;4.40;;;18.50;99.90;;;;;;5133280;27;20122;-58
2023/05/14 07:45:00;;;;;;;16.55;4.25;;;18.70;99.90;;;;;;5132521;27;20034;-58
2023/05/14 07:47:25;;;;;;;11.05;3.92;;;19.10;99.90;;;;;;5132448;27;20503;-58
2023/05/14 07:49:55;;;;;;;15.65;4.30;;;19.50;99.90;;;;;;5131584;27;20102;-58
2023/05/14 07:52:21;;;;;;;14.95;3.72;;;19.60;99.90;;;;;;5113720;27;20526;-58
2023/05/14 07:54:47;;;;;;;14.52;4.63;;;19.30;99.90;;;;;;5132557;27;20531;-58
2023/05/14 07:57:13;;;;;;;10.18;4.05;;;19.20;99.90;;;;;;5130800;27;20130;-58
2023/05/14 07:59:39;;;;;;;12.57;4.35;;;19.10;99.90;;;;;;5132116;27;20153;-58
2023/05/14 08:02:05;;;;;;;16.58;5.72;;;19.10;99.90;;;;;;5132483;27;20137;-58
2023/05/14 08:04:30;;;;;;;13.52;4.10;;;19.40;99.90;;;;;;5130451;27;20056;-58
2023/05/14 08:06:57;;;;;;;15.70;4.88;;;19.00;99.90;;;;;;5130077;27;21014;-58
2023/05/14 08:09:23;;;;;;;17.30;4.45;;;19.00;99.90;;;;;;5133391;27;20046;-58
2023/05/14 08:11:48;;;;;;;17.20;4.93;;;18.40;99.90;;;;;;5131506;27;20042;-57
2023/05/14 08:14:14;;;;;;;13.75;4.93;;;18.20;99.90;;;;;;5129839;27;20077;-58
2023/05/14 08:16:40;;;;;;;14.32;5.80;;;18.00;99.90;;;;;;5112245;27;20085;-58
2023/05/14 08:19:06;;;;;;;12.43;4.60;;;17.90;99.90;;;;;;5131639;27;20399;-58
2023/05/14 08:21:31;;;;;;;15.90;4.82;;;19.60;99.90;;;;;;5129322;27;20134;-58
2023/05/14 08:23:57;;;;;;;12.13;4.57;;;17.40;99.90;;;;;;5129752;27;20487;-57
2023/05/14 08:26:23;;;;;;;15.93;5.15;;;17.60;99.90;;;;;;5130891;27;22570;-58
2023/05/14 08:28:49;;;;;;;14.45;5.13;;;17.60;99.90;;;;;;5131165;27;20043;-57
2023/05/14 08:31:15;;;;;;;15.57;5.88;;;17.60;99.90;;;;;;5130288;27;20046;-58
2023/05/14 08:33:41;;;;;;;13.90;5.63;;;17.60;99.90;;;;;;5130525;27;20441;-58
2023/05/14 08:36:07;;;;;;;16.05;5.78;;;17.80;99.90;;;;;;5131477;27;20045;-58
2023/05/14 08:38:32;;;;;;;16.85;5.82;;;17.40;99.90;;;;;;5113276;27;20038;-58
2023/05/14 08:40:59;;;;;;;12.43;5.03;;;17.60;99.90;;;;;;5131170;27;20144;-57
2023/05/14 08:43:28;;;;;;;14.85;5.47;;;16.20;99.90;;;;;;5130856;27;20039;-58
2023/05/14 08:45:57;;;;;;;15.35;5.60;;;17.30;99.90;;;;;;5130430;27;20035;-58
2023/05/14 08:48:30;;;;;;;16.55;5.40;;;17.40;99.90;;;;;;5131580;27;20474;-58
2023/05/14 08:50:56;;;;;;;15.48;5.47;;;17.40;99.90;;;;;;5130423;27;20043;-58
2023/05/14 08:53:22;;;;;;;16.75;5.70;;;17.40;99.90;;;;;;5097456;27;20039;-56
2023/05/14 08:55:50;;;;;;;12.88;5.15;;;17.30;99.90;;;;;;5131203;27;20046;-58
2023/05/14 08:58:16;;;;;;;14.85;6.25;;;17.30;99.90;;;;;;5111846;27;20049;-57
2023/05/14 09:00:41;;;;;;;15.40;5.75;;;17.40;99.90;;;;;;5130472;27;20054;-57
2023/05/14 09:03:08;;;;;;;17.92;5.32;;;17.20;99.90;;;;;;5111994;27;20586;-58
2023/05/14 09:05:34;;;;;;;15.95;5.75;;;17.50;99.90;;;;;;5129749;27;20047;-58
2023/05/14 09:08:00;;;;;;;16.52;5.35;;;17.80;99.90;;;;;;5111454;27;20419;-58
2023/05/14 09:10:26;;;;;;;12.27;5.60;;;17.80;99.90;;;;;;5132536;27;20047;-58
2023/05/14 09:12:51;;;;;;;11.90;4.95;;;18.30;99.90;;;;;;5131592;27;20311;-58
2023/05/14 09:15:17;;;;;;;14.02;6.05;;;18.10;99.90;;;;;;5134010;27;20371;-58
2023/05/14 09:17:46;;;;;;;15.48;6.00;;;18.10;99.90;;;;;;5099836;27;20148;-58
2023/05/14 09:20:13;;;;;;;17.10;6.38;;;18.20;99.90;;;;;;5117037;27;20059;-58
2023/05/14 09:22:39;;;;;;;24.20;7.15;;;17.70;99.90;;;;;;5134779;27;20083;-58
2023/05/14 09:25:08;;;;;;;15.55;6.25;;;17.90;99.90;;;;;;5134049;27;20054;-58
2023/05/14 09:27:35;;;;;;;15.45;6.10;;;17.60;99.90;;;;;;5133871;27;20053;-58
2023/05/14 09:30:04;;;;;;;12.85;6.45;;;17.50;99.90;;;;;;5116896;27;20852;-58
2023/05/14 09:32:44;;;;;;;12.32;5.80;;;17.60;99.90;;;;;;5133859;27;20095;-58
2023/05/14 09:35:16;;;;;;;14.38;6.63;;;17.80;99.90;;;;;;5134155;27;20433;-58
2023/05/14 09:37:44;;;;;;;14.80;5.82;;;17.90;99.90;;;;;;5134656;27;20042;-58
2023/05/14 09:40:11;;;;;;;16.13;6.57;;;18.00;99.90;;;;;;5136107;27;20082;-57
2023/05/14 09:42:37;;;;;;;11.70;5.30;;;18.00;99.90;;;;;;5115786;27;20039;-58
2023/05/14 09:45:03;;;;;;;13.80;5.30;;;18.20;99.90;;;;;;5134504;27;20045;-58
2023/05/14 09:47:30;;;;;;;15.50;6.22;;;18.20;99.90;;;;;;5117013;27;20104;-58
2023/05/14 09:49:56;;;;;;;15.77;6.90;;;18.20;99.90;;;;;;5134911;27;20361;-58
2023/05/14 09:52:25;;;;;;;18.70;6.70;;;18.20;99.90;;;;;;5115832;27;20043;-58
2023/05/14 09:54:52;;;;;;;13.05;5.60;;;18.50;99.90;;;;;;5134144;27;20103;-58
2023/05/14 09:57:18;;;;;;;12.65;5.78;;;18.60;99.90;;;;;;5135153;27;20351;-58
2023/05/14 09:59:44;;;;;;;14.95;5.50;;;19.10;99.90;;;;;;5135942;27;20141;-58
2023/05/14 10:02:24;;;;;;;17.15;6.25;;;19.10;99.90;;;;;;5133996;27;20594;-58
2023/05/14 10:04:52;;;;;;;13.65;5.28;;;19.40;99.90;;;;;;5132197;27;20077;-57
2023/05/14 10:07:22;;;;;;;17.90;6.63;;;19.40;99.90;;;;;;5135539;27;20329;-58
2023/05/14 10:09:53;;;;;;;15.10;5.70;;;19.50;99.90;;;;;;5136237;27;20051;-57
2023/05/14 10:12:22;;;;;;;16.08;6.13;;;19.40;99.90;;;;;;5136028;27;20046;-58
2023/05/14 10:14:52;;;;;;;16.90;5.78;;;19.40;99.90;;;;;;5135015;27;20126;-58
2023/05/14 10:17:20;;;;;;;18.30;5.70;;;19.30;99.90;;;;;;5137156;27;20043;-57
2023/05/14 10:19:52;;;;;;;13.98;5.43;;;19.30;99.90;;;;;;5134501;27;20475;-58
2023/05/14 10:22:22;;;;;;;15.10;5.85;;;19.30;99.90;;;;;;5135518;27;20089;-58
2023/05/14 10:24:52;;;;;;;10.15;5.53;;;19.30;99.90;;;;;;5117057;27;20046;-57
2023/05/14 10:27:20;;;;;;;12.18;5.78;;;19.50;99.90;;;;;;5117469;27;20091;-57
2023/05/14 10:29:55;;;;;;;16.25;5.78;;;19.70;99.90;;;;;;5134067;27;20042;-58
2023/05/14 10:32:24;;;;;;;19.73;6.22;;;19.70;99.90;;;;;;5134884;27;20471;-58
2023/05/14 10:34:51;;;;;;;13.23;5.78;;;19.80;99.90;;;;;;5100106;27;20047;-58
2023/05/14 10:37:27;;;;;;;15.70;6.80;;;20.10;99.90;;;;;;5115989;27;20062;-58
2023/05/14 10:40:07;;;;;;;12.65;5.97;;;20.10;99.90;;;;;;5137423;27;20041;-57
2023/05/14 10:42:34;;;;;;;15.10;6.28;;;20.30;99.90;;;;;;5134411;27;21104;-57
2023/05/14 10:45:06;;;;;;;13.15;5.90;;;20.30;99.90;;;;;;5133744;27;20077;-57
2023/05/14 10:47:32;;;;;;;14.65;6.00;;;20.30;99.90;;;;;;5132898;27;20678;-58
2023/05/14 10:50:01;;;;;;;15.57;6.22;;;20.30;99.90;;;;;;5133841;27;20130;-59
2023/05/14 10:52:28;;;;;;;11.55;5.65;;;20.00;99.90;;;;;;5132709;27;20047;-58
2023/05/14 10:54:56;;;;;;;21.08;7.32;;;19.90;99.90;;;;;;5114522;27;20447;-57
2023/05/14 10:57:29;;;;;;;13.25;6.43;;;19.60;99.90;;;;;;5133283;27;20062;-57
2023/05/14 10:59:58;;;;;;;12.02;5.18;;;19.60;99.90;;;;;;5132615;27;20522;-58
2023/05/14 11:02:29;;;;;;;13.35;5.53;;;19.70;99.90;;;;;;5132965;27;20133;-58
2023/05/14 11:05:03;;;;;;;13.77;5.90;;;19.80;99.90;;;;;;5132847;27;20103;-57
2023/05/14 11:07:34;;;;;;;13.70;7.05;;;20.00;99.90;;;;;;5132440;27;20541;-57
2023/05/14 11:10:08;;;;;;;14.85;6.40;;;20.20;99.90;;;;;;5133914;27;20046;-57
2023/05/14 11:12:36;;;;;;;11.73;5.50;;;20.20;99.90;;;;;;5133569;27;20039;-58
2023/05/14 11:15:08;;;;;;;11.27;5.22;;;20.40;99.90;;;;;;5132383;27;20408;-58
2023/05/14 11:17:34;;;;;;;;;;;20.70;99.90;;;;;;5132529;27;20039;-58
2023/05/14 11:20:00;;;;;;;13.63;5.72;;;20.50;99.90;;;;;;5132113;27;19923;-58
2023/05/14 11:22:26;;;;;;;13.07;4.85;;;20.40;99.90;;;;;;5132913;27;20033;-58
2023/05/14 11:24:52;;;;;;;10.88;5.30;;;20.60;99.90;;;;;;5132702;27;20506;-58
2023/05/14 11:27:18;;;;;;;9.90;5.07;;;20.50;99.90;;;;;;5132794;27;20064;-58
2023/05/14 11:29:45;;;;;;;15.25;5.60;;;20.90;99.90;;;;;;5131682;27;20043;-58
2023/05/14 11:32:11;;;;;;;9.65;5.05;;;21.10;99.90;;;;;;5115507;27;20589;-58
2023/05/14 11:34:37;;;;;;;11.40;4.53;;;21.20;99.90;;;;;;5131380;27;20144;-57
2023/05/14 11:37:07;;;;;;;12.10;4.82;;;21.40;99.90;;;;;;5132989;27;20826;-58
2023/05/14 11:39:34;;;;;;;12.63;4.32;;;21.30;99.90;;;;;;5132392;27;20117;-58
2023/05/14 11:42:08;;;;;;;12.73;4.30;;;21.40;99.90;;;;;;5134288;27;20050;-58
2023/05/14 11:44:34;;;;;;;12.32;4.40;;;21.60;99.90;;;;;;5134928;27;20042;-58
2023/05/14 11:47:03;;;;;;;12.75;5.13;;;21.80;99.90;;;;;;5132959;27;20565;-58
2023/05/14 11:49:31;;;;;;;9.00;3.75;;;21.90;99.90;;;;;;5114964;27;20049;-58
2023/05/14 11:52:09;;;;;;;10.63;5.43;;;22.30;99.90;;;;;;5132195;27;20038;-58
2023/05/14 11:54:35;;;;;;;10.95;4.07;;;22.10;99.90;;;;;;5115557;27;20133;-58
2023/05/14 11:57:10;;;;;;;8.90;4.47;;;22.00;99.90;;;;;;5133332;27;20745;-58
2023/05/14 11:59:37;;;;;;;11.13;4.22;;;22.20;99.90;;;;;;5133012;27;20043;-58
2023/05/14 12:02:04;;;;;;;9.20;3.55;;;19.90;99.90;;;;;;5109662;27;20539;-59
2023/05/14 12:04:30;;;;;;;8.02;3.67;;;22.50;99.90;;;;;;5110446;27;20050;-58
2023/05/14 12:06:58;;;;;;;12.95;3.95;;;22.40;99.90;;;;;;5112072;27;20055;-58
2023/05/14 12:09:24;;;;;;;13.43;4.22;;;22.10;99.90;;;;;;5111449;27;20062;-58
2023/05/14 12:11:50;;;;;;;9.75;3.60;;;21.90;99.90;;;;;;5112592;27;20154;-58
2023/05/14 12:14:19;;;;;;;9.20;3.67;;;21.80;99.90;;;;;;5111216;27;20047;-58
2023/05/14 12:16:46;;;;;;;7.88;4.03;;;21.50;99.90;;;;;;5110551;27;20413;-59
2023/05/14 12:19:14;;;;;;;8.70;3.58;;;21.60;99.90;;;;;;5109487;27;23551;-58
2023/05/14 12:21:42;;;;;;;7.40;4.10;;;21.70;99.90;;;;;;5111643;27;20040;-58
2023/05/14 12:24:14;;;;;;;11.50;3.75;;;21.60;99.90;;;;;;5110643;27;20039;-58
2023/05/14 12:26:48;;;;;;;13.02;4.00;;;21.50;99.90;;;;;;5110695;27;20045;-57
2023/05/14 12:29:15;;;;;;;11.55;4.65;;;21.40;99.90;;;;;;5110809;27;20043;-57
2023/05/14 12:31:48;;;;;;;8.48;4.57;;;21.30;99.90;;;;;;5113114;27;20050;-58
2023/05/14 12:34:15;;;;;;;9.85;4.32;;;21.10;99.90;;;;;;5110988;28;20031;-58